sensor_id;sensor_type;location;lat;lon;timestamp;P1;durP1;ratioP1;P2;durP2;ratioP2
22603;SDS011;11469;49.024;8.246;2022-10-16T00:01:56;9.48;;;1.92;;
22603;SDS011;11469;49.024;8.246;2022-10-16T00:04:22;6.60;;;1.75;;
22603;SDS011;11469;49.024;8.246;2022-10-16T00:06:47;4.22;;;1.42;;
22603;SDS011;11469;49.024;8.246;2022-10-16T00:09:12;5.53;;;1.48;;
22603;SDS011;11469;49.024;8.246;2022-10-16T00:11:39;2.72;;;1.30;;
22603;SDS011;11469;49.024;8.246;2022-10-16T00:14:06;2.92;;;1.30;;
22603;SDS011;11469;49.024;8.246;2022-10-16T00:16:34;2.70;;;1.45;;
22603;SDS011;11469;49.024;8.246;2022-10-16T00:19:00;4.95;;;1.60;;
22603;SDS011;11469;49.024;8.246;2022-10-16T00:21:27;4.45;;;1.55;;
22603;SDS011;11469;49.024;8.246;2022-10-16T00:23:54;4.82;;;1.30;;
22603;SDS011;11469;49.024;8.246;2022-10-16T00:26:38;4.32;;;1.73;;
22603;SDS011;11469;49.024;8.246;2022-10-16T00:29:04;2.85;;;1.70;;
22603;SDS011;11469;49.024;8.246;2022-10-16T00:31:30;3.35;;;1.08;;
22603;SDS011;11469;49.024;8.246;2022-10-16T00:33:56;2.53;;;1.30;;
22603;SDS011;11469;49.024;8.246;2022-10-16T00:36:22;7.22;;;1.30;;
22603;SDS011;11469;49.024;8.246;2022-10-16T00:38:52;2.35;;;1.55;;
22603;SDS011;11469;49.024;8.246;2022-10-16T00:41:25;3.95;;;1.42;;
22603;SDS011;11469;49.024;8.246;2022-10-16T00:43:56;3.03;;;1.20;;
22603;SDS011;11469;49.024;8.246;2022-10-16T00:46:37;3.15;;;1.45;;
22603;SDS011;11469;49.024;8.246;2022-10-16T00:49:06;5.20;;;1.60;;
22603;SDS011;11469;49.024;8.246;2022-10-16T00:51:46;2.97;;;1.42;;
22603;SDS011;11469;49.024;8.246;2022-10-16T00:54:15;3.88;;;1.52;;
22603;SDS011;11469;49.024;8.246;2022-10-16T00:56:47;3.95;;;1.55;;
22603;SDS011;11469;49.024;8.246;2022-10-16T00:59:15;5.38;;;1.50;;
22603;SDS011;11469;49.024;8.246;2022-10-16T01:01:52;6.00;;;1.50;;
22603;SDS011;11469;49.024;8.246;2022-10-16T01:04:19;3.30;;;1.60;;
22603;SDS011;11469;49.024;8.246;2022-10-16T01:06:55;2.33;;;1.52;;
22603;SDS011;11469;49.024;8.246;2022-10-16T01:12:29;4.60;;;1.77;;
22603;SDS011;11469;49.024;8.246;2022-10-16T01:15:17;5.93;;;1.88;;
22603;SDS011;11469;49.024;8.246;2022-10-16T01:23:05;1.92;;;1.38;;
22603;SDS011;11469;49.024;8.246;2022-10-16T01:28:32;9.07;;;1.40;;
22603;SDS011;11469;49.024;8.246;2022-10-16T01:31:03;4.30;;;1.15;;
22603;SDS011;11469;49.024;8.246;2022-10-16T01:33:37;5.40;;;1.42;;
22603;SDS011;11469;49.024;8.246;2022-10-16T01:36:18;2.70;;;1.65;;
22603;SDS011;11469;49.024;8.246;2022-10-16T01:38:50;5.45;;;1.63;;
22603;SDS011;11469;49.024;8.246;2022-10-16T01:41:21;2.75;;;1.15;;
22603;SDS011;11469;49.024;8.246;2022-10-16T01:43:54;3.25;;;1.30;;
22603;SDS011;11469;49.024;8.246;2022-10-16T01:46:27;3.47;;;1.80;;
22603;SDS011;11469;49.024;8.246;2022-10-16T01:48:56;7.20;;;1.65;;
22603;SDS011;11469;49.024;8.246;2022-10-16T01:51:22;3.47;;;1.55;;
22603;SDS011;11469;49.024;8.246;2022-10-16T01:53:50;2.25;;;1.40;;
22603;SDS011;11469;49.024;8.246;2022-10-16T01:56:19;21.17;;;4.57;;
22603;SDS011;11469;49.024;8.246;2022-10-16T01:58:54;7.47;;;3.40;;
22603;SDS011;11469;49.024;8.246;2022-10-16T02:01:23;11.95;;;4.80;;
22603;SDS011;11469;49.024;8.246;2022-10-16T02:03:52;11.68;;;4.88;;
22603;SDS011;11469;49.024;8.246;2022-10-16T02:06:22;9.60;;;4.32;;
22603;SDS011;11469;49.024;8.246;2022-10-16T02:08:48;6.65;;;2.30;;
22603;SDS011;11469;49.024;8.246;2022-10-16T02:11:14;4.47;;;2.53;;
22603;SDS011;11469;49.024;8.246;2022-10-16T02:13:46;2.65;;;1.27;;
22603;SDS011;11469;49.024;8.246;2022-10-16T02:16:16;6.18;;;1.85;;
22603;SDS011;11469;49.024;8.246;2022-10-16T02:18:41;8.43;;;1.92;;
22603;SDS011;11469;49.024;8.246;2022-10-16T02:21:25;3.97;;;1.60;;
22603;SDS011;11469;49.024;8.246;2022-10-16T02:24:06;2.60;;;1.65;;
22603;SDS011;11469;49.024;8.246;2022-10-16T02:26:43;5.35;;;1.88;;
22603;SDS011;11469;49.024;8.246;2022-10-16T02:29:17;4.57;;;2.00;;
22603;SDS011;11469;49.024;8.246;2022-10-16T02:31:48;2.47;;;1.70;;
22603;SDS011;11469;49.024;8.246;2022-10-16T02:34:18;4.03;;;1.88;;
22603;SDS011;11469;49.024;8.246;2022-10-16T02:36:47;3.50;;;1.80;;
22603;SDS011;11469;49.024;8.246;2022-10-16T02:39:15;4.32;;;1.65;;
22603;SDS011;11469;49.024;8.246;2022-10-16T02:41:41;4.05;;;1.80;;
22603;SDS011;11469;49.024;8.246;2022-10-16T02:44:07;8.10;;;2.30;;
22603;SDS011;11469;49.024;8.246;2022-10-16T02:46:33;4.10;;;2.10;;
22603;SDS011;11469;49.024;8.246;2022-10-16T02:48:58;2.63;;;1.70;;
22603;SDS011;11469;49.024;8.246;2022-10-16T02:51:23;8.27;;;2.58;;
22603;SDS011;11469;49.024;8.246;2022-10-16T02:53:49;3.88;;;1.85;;
22603;SDS011;11469;49.024;8.246;2022-10-16T02:56:14;5.85;;;1.58;;
22603;SDS011;11469;49.024;8.246;2022-10-16T02:58:40;6.78;;;1.70;;
22603;SDS011;11469;49.024;8.246;2022-10-16T03:01:05;5.05;;;1.27;;
22603;SDS011;11469;49.024;8.246;2022-10-16T03:03:30;5.60;;;1.25;;
22603;SDS011;11469;49.024;8.246;2022-10-16T03:05:56;2.78;;;1.13;;
22603;SDS011;11469;49.024;8.246;2022-10-16T03:08:21;6.53;;;1.13;;
22603;SDS011;11469;49.024;8.246;2022-10-16T03:10:49;2.03;;;1.02;;
22603;SDS011;11469;49.024;8.246;2022-10-16T03:13:15;4.63;;;1.20;;
22603;SDS011;11469;49.024;8.246;2022-10-16T03:15:40;16.25;;;1.13;;
22603;SDS011;11469;49.024;8.246;2022-10-16T03:18:06;1.90;;;1.10;;
22603;SDS011;11469;49.024;8.246;2022-10-16T03:20:31;3.72;;;1.23;;
22603;SDS011;11469;49.024;8.246;2022-10-16T03:22:56;3.55;;;1.20;;
22603;SDS011;11469;49.024;8.246;2022-10-16T03:25:22;1.75;;;1.08;;
22603;SDS011;11469;49.024;8.246;2022-10-16T03:27:47;3.30;;;1.27;;
22603;SDS011;11469;49.024;8.246;2022-10-16T03:30:13;4.88;;;1.60;;
22603;SDS011;11469;49.024;8.246;2022-10-16T03:32:38;7.20;;;1.70;;
22603;SDS011;11469;49.024;8.246;2022-10-16T03:35:04;3.53;;;1.83;;
22603;SDS011;11469;49.024;8.246;2022-10-16T03:37:29;2.35;;;1.60;;
22603;SDS011;11469;49.024;8.246;2022-10-16T03:39:55;1.98;;;1.50;;
22603;SDS011;11469;49.024;8.246;2022-10-16T03:42:20;3.63;;;1.80;;
22603;SDS011;11469;49.024;8.246;2022-10-16T03:44:45;3.00;;;1.88;;
22603;SDS011;11469;49.024;8.246;2022-10-16T03:47:11;3.67;;;1.90;;
22603;SDS011;11469;49.024;8.246;2022-10-16T03:49:36;2.90;;;1.88;;
22603;SDS011;11469;49.024;8.246;2022-10-16T03:52:01;5.35;;;1.80;;
22603;SDS011;11469;49.024;8.246;2022-10-16T03:54:27;4.28;;;1.67;;
22603;SDS011;11469;49.024;8.246;2022-10-16T03:56:52;7.05;;;1.92;;
22603;SDS011;11469;49.024;8.246;2022-10-16T03:59:18;2.35;;;1.50;;
22603;SDS011;11469;49.024;8.246;2022-10-16T04:01:43;3.22;;;1.38;;
22603;SDS011;11469;49.024;8.246;2022-10-16T04:04:08;5.57;;;1.83;;
22603;SDS011;11469;49.024;8.246;2022-10-16T04:06:34;5.20;;;1.42;;
22603;SDS011;11469;49.024;8.246;2022-10-16T04:08:59;2.63;;;1.40;;
22603;SDS011;11469;49.024;8.246;2022-10-16T04:11:25;7.28;;;1.30;;
22603;SDS011;11469;49.024;8.246;2022-10-16T04:13:50;3.40;;;1.60;;
22603;SDS011;11469;49.024;8.246;2022-10-16T04:16:16;2.60;;;1.33;;
22603;SDS011;11469;49.024;8.246;2022-10-16T04:18:41;2.42;;;1.23;;
22603;SDS011;11469;49.024;8.246;2022-10-16T04:21:07;6.32;;;2.05;;
22603;SDS011;11469;49.024;8.246;2022-10-16T04:23:32;3.85;;;1.52;;
22603;SDS011;11469;49.024;8.246;2022-10-16T04:25:58;2.90;;;1.58;;
22603;SDS011;11469;49.024;8.246;2022-10-16T04:28:25;2.35;;;1.77;;
22603;SDS011;11469;49.024;8.246;2022-10-16T04:30:50;3.38;;;1.88;;
22603;SDS011;11469;49.024;8.246;2022-10-16T04:33:16;4.95;;;1.65;;
22603;SDS011;11469;49.024;8.246;2022-10-16T04:35:41;5.70;;;1.88;;
22603;SDS011;11469;49.024;8.246;2022-10-16T04:38:07;4.93;;;1.85;;
22603;SDS011;11469;49.024;8.246;2022-10-16T04:40:32;5.30;;;2.42;;
22603;SDS011;11469;49.024;8.246;2022-10-16T04:42:58;4.38;;;1.50;;
22603;SDS011;11469;49.024;8.246;2022-10-16T04:45:24;2.33;;;1.58;;
22603;SDS011;11469;49.024;8.246;2022-10-16T04:47:50;3.58;;;1.50;;
22603;SDS011;11469;49.024;8.246;2022-10-16T04:50:15;3.42;;;1.60;;
22603;SDS011;11469;49.024;8.246;2022-10-16T04:52:41;3.80;;;1.80;;
22603;SDS011;11469;49.024;8.246;2022-10-16T04:55:06;3.20;;;1.85;;
22603;SDS011;11469;49.024;8.246;2022-10-16T04:57:32;7.75;;;1.60;;
22603;SDS011;11469;49.024;8.246;2022-10-16T04:59:58;7.95;;;1.83;;
22603;SDS011;11469;49.024;8.246;2022-10-16T05:02:24;3.58;;;1.50;;
22603;SDS011;11469;49.024;8.246;2022-10-16T05:04:49;6.97;;;1.98;;
22603;SDS011;11469;49.024;8.246;2022-10-16T05:07:15;5.07;;;2.08;;
22603;SDS011;11469;49.024;8.246;2022-10-16T05:09:40;6.95;;;2.00;;
22603;SDS011;11469;49.024;8.246;2022-10-16T05:12:05;5.80;;;2.03;;
22603;SDS011;11469;49.024;8.246;2022-10-16T05:14:31;6.22;;;1.90;;
22603;SDS011;11469;49.024;8.246;2022-10-16T05:16:56;3.92;;;2.13;;
22603;SDS011;11469;49.024;8.246;2022-10-16T05:19:22;2.60;;;1.60;;
22603;SDS011;11469;49.024;8.246;2022-10-16T05:21:47;4.25;;;1.80;;
22603;SDS011;11469;49.024;8.246;2022-10-16T05:24:12;2.78;;;1.80;;
22603;SDS011;11469;49.024;8.246;2022-10-16T05:26:38;6.18;;;1.98;;
22603;SDS011;11469;49.024;8.246;2022-10-16T05:29:03;6.00;;;1.40;;
22603;SDS011;11469;49.024;8.246;2022-10-16T05:31:29;2.38;;;1.73;;
22603;SDS011;11469;49.024;8.246;2022-10-16T05:34:00;4.18;;;1.95;;
22603;SDS011;11469;49.024;8.246;2022-10-16T05:36:26;5.72;;;1.70;;
22603;SDS011;11469;49.024;8.246;2022-10-16T05:38:52;4.43;;;2.00;;
22603;SDS011;11469;49.024;8.246;2022-10-16T05:41:18;8.30;;;2.10;;
22603;SDS011;11469;49.024;8.246;2022-10-16T05:43:48;8.30;;;2.00;;
22603;SDS011;11469;49.024;8.246;2022-10-16T05:46:14;3.45;;;2.00;;
22603;SDS011;11469;49.024;8.246;2022-10-16T05:48:40;9.43;;;2.20;;
22603;SDS011;11469;49.024;8.246;2022-10-16T05:51:06;8.52;;;2.10;;
22603;SDS011;11469;49.024;8.246;2022-10-16T05:53:34;3.72;;;2.15;;
22603;SDS011;11469;49.024;8.246;2022-10-16T05:56:01;4.57;;;2.28;;
22603;SDS011;11469;49.024;8.246;2022-10-16T05:58:31;5.75;;;2.92;;
22603;SDS011;11469;49.024;8.246;2022-10-16T06:01:19;5.90;;;3.03;;
22603;SDS011;11469;49.024;8.246;2022-10-16T06:03:45;7.05;;;3.10;;
22603;SDS011;11469;49.024;8.246;2022-10-16T06:06:13;7.45;;;2.67;;
22603;SDS011;11469;49.024;8.246;2022-10-16T06:08:40;5.18;;;2.88;;
22603;SDS011;11469;49.024;8.246;2022-10-16T06:11:07;11.07;;;4.93;;
22603;SDS011;11469;49.024;8.246;2022-10-16T06:13:34;30.80;;;3.60;;
22603;SDS011;11469;49.024;8.246;2022-10-16T06:16:00;9.25;;;3.22;;
22603;SDS011;11469;49.024;8.246;2022-10-16T06:18:27;7.35;;;2.75;;
22603;SDS011;11469;49.024;8.246;2022-10-16T06:20:54;8.18;;;3.58;;
22603;SDS011;11469;49.024;8.246;2022-10-16T06:23:20;6.57;;;4.90;;
22603;SDS011;11469;49.024;8.246;2022-10-16T06:25:46;8.55;;;5.63;;
22603;SDS011;11469;49.024;8.246;2022-10-16T06:28:13;11.00;;;5.50;;
22603;SDS011;11469;49.024;8.246;2022-10-16T06:30:39;8.98;;;5.45;;
22603;SDS011;11469;49.024;8.246;2022-10-16T06:33:04;10.45;;;5.00;;
22603;SDS011;11469;49.024;8.246;2022-10-16T06:35:30;8.88;;;5.10;;
22603;SDS011;11469;49.024;8.246;2022-10-16T06:37:56;8.27;;;4.95;;
22603;SDS011;11469;49.024;8.246;2022-10-16T06:40:22;8.13;;;5.75;;
22603;SDS011;11469;49.024;8.246;2022-10-16T06:42:47;10.27;;;5.90;;
22603;SDS011;11469;49.024;8.246;2022-10-16T06:45:13;13.07;;;6.20;;
22603;SDS011;11469;49.024;8.246;2022-10-16T06:47:38;10.20;;;5.75;;
22603;SDS011;11469;49.024;8.246;2022-10-16T06:50:04;13.07;;;4.80;;
22603;SDS011;11469;49.024;8.246;2022-10-16T06:52:31;5.13;;;3.70;;
22603;SDS011;11469;49.024;8.246;2022-10-16T06:54:58;6.53;;;3.35;;
22603;SDS011;11469;49.024;8.246;2022-10-16T06:57:23;6.00;;;3.03;;
22603;SDS011;11469;49.024;8.246;2022-10-16T06:59:49;7.40;;;2.60;;
22603;SDS011;11469;49.024;8.246;2022-10-16T07:02:14;15.55;;;2.72;;
22603;SDS011;11469;49.024;8.246;2022-10-16T07:04:39;7.57;;;2.90;;
22603;SDS011;11469;49.024;8.246;2022-10-16T07:07:05;7.20;;;2.30;;
22603;SDS011;11469;49.024;8.246;2022-10-16T07:09:30;7.60;;;2.72;;
22603;SDS011;11469;49.024;8.246;2022-10-16T07:11:56;5.18;;;2.65;;
22603;SDS011;11469;49.024;8.246;2022-10-16T07:14:21;3.38;;;2.00;;
22603;SDS011;11469;49.024;8.246;2022-10-16T07:16:47;11.52;;;2.35;;
22603;SDS011;11469;49.024;8.246;2022-10-16T07:19:13;7.47;;;2.47;;
22603;SDS011;11469;49.024;8.246;2022-10-16T07:21:41;14.30;;;2.92;;
22603;SDS011;11469;49.024;8.246;2022-10-16T07:24:10;6.63;;;2.00;;
22603;SDS011;11469;49.024;8.246;2022-10-16T07:26:38;7.68;;;2.65;;
22603;SDS011;11469;49.024;8.246;2022-10-16T07:29:04;5.85;;;2.10;;
22603;SDS011;11469;49.024;8.246;2022-10-16T07:31:31;5.45;;;2.28;;
22603;SDS011;11469;49.024;8.246;2022-10-16T07:33:58;9.32;;;2.33;;
22603;SDS011;11469;49.024;8.246;2022-10-16T07:36:25;8.90;;;2.70;;
22603;SDS011;11469;49.024;8.246;2022-10-16T07:38:50;5.18;;;2.33;;
22603;SDS011;11469;49.024;8.246;2022-10-16T07:41:17;11.18;;;2.65;;
22603;SDS011;11469;49.024;8.246;2022-10-16T07:43:47;8.77;;;2.53;;
22603;SDS011;11469;49.024;8.246;2022-10-16T07:46:14;7.15;;;2.42;;
22603;SDS011;11469;49.024;8.246;2022-10-16T07:48:40;7.85;;;2.30;;
22603;SDS011;11469;49.024;8.246;2022-10-16T07:51:10;5.00;;;2.17;;
22603;SDS011;11469;49.024;8.246;2022-10-16T07:53:36;4.68;;;2.47;;
22603;SDS011;11469;49.024;8.246;2022-10-16T07:56:04;7.40;;;2.47;;
22603;SDS011;11469;49.024;8.246;2022-10-16T07:58:31;5.43;;;2.30;;
22603;SDS011;11469;49.024;8.246;2022-10-16T08:00:57;8.82;;;2.05;;
22603;SDS011;11469;49.024;8.246;2022-10-16T08:03:23;4.13;;;2.10;;
22603;SDS011;11469;49.024;8.246;2022-10-16T08:05:49;10.57;;;2.10;;
22603;SDS011;11469;49.024;8.246;2022-10-16T08:08:15;9.07;;;2.50;;
22603;SDS011;11469;49.024;8.246;2022-10-16T08:10:41;10.10;;;2.30;;
22603;SDS011;11469;49.024;8.246;2022-10-16T08:13:07;10.85;;;2.72;;
22603;SDS011;11469;49.024;8.246;2022-10-16T08:15:33;4.63;;;2.35;;
22603;SDS011;11469;49.024;8.246;2022-10-16T08:18:02;3.10;;;1.80;;
22603;SDS011;11469;49.024;8.246;2022-10-16T08:20:30;8.93;;;2.13;;
22603;SDS011;11469;49.024;8.246;2022-10-16T08:22:56;4.43;;;1.88;;
22603;SDS011;11469;49.024;8.246;2022-10-16T08:25:22;5.32;;;1.67;;
22603;SDS011;11469;49.024;8.246;2022-10-16T08:27:48;5.00;;;1.95;;
22603;SDS011;11469;49.024;8.246;2022-10-16T08:30:14;10.65;;;2.40;;
22603;SDS011;11469;49.024;8.246;2022-10-16T08:32:40;10.27;;;2.40;;
22603;SDS011;11469;49.024;8.246;2022-10-16T08:35:09;5.68;;;1.90;;
22603;SDS011;11469;49.024;8.246;2022-10-16T08:37:35;15.23;;;3.00;;
22603;SDS011;11469;49.024;8.246;2022-10-16T08:40:01;4.82;;;2.20;;
22603;SDS011;11469;49.024;8.246;2022-10-16T08:42:53;8.77;;;1.70;;
22603;SDS011;11469;49.024;8.246;2022-10-16T08:45:31;4.82;;;1.80;;
22603;SDS011;11469;49.024;8.246;2022-10-16T08:50:48;6.03;;;2.05;;
22603;SDS011;11469;49.024;8.246;2022-10-16T08:53:31;3.45;;;1.80;;
22603;SDS011;11469;49.024;8.246;2022-10-16T08:56:09;11.95;;;2.40;;
22603;SDS011;11469;49.024;8.246;2022-10-16T08:58:35;6.70;;;1.70;;
22603;SDS011;11469;49.024;8.246;2022-10-16T09:01:01;10.43;;;2.95;;
22603;SDS011;11469;49.024;8.246;2022-10-16T09:09:24;7.18;;;2.35;;
22603;SDS011;11469;49.024;8.246;2022-10-16T09:20:14;7.22;;;3.40;;
22603;SDS011;11469;49.024;8.246;2022-10-16T09:22:44;7.85;;;3.85;;
22603;SDS011;11469;49.024;8.246;2022-10-16T09:25:14;13.50;;;4.82;;
22603;SDS011;11469;49.024;8.246;2022-10-16T09:27:42;6.18;;;4.03;;
22603;SDS011;11469;49.024;8.246;2022-10-16T09:30:15;20.85;;;4.18;;
22603;SDS011;11469;49.024;8.246;2022-10-16T09:32:43;9.73;;;3.05;;
22603;SDS011;11469;49.024;8.246;2022-10-16T09:35:14;14.80;;;2.90;;
22603;SDS011;11469;49.024;8.246;2022-10-16T09:38:01;8.20;;;3.95;;
22603;SDS011;11469;49.024;8.246;2022-10-16T09:40:27;6.97;;;2.85;;
22603;SDS011;11469;49.024;8.246;2022-10-16T09:42:58;6.70;;;1.80;;
22603;SDS011;11469;49.024;8.246;2022-10-16T09:45:28;6.05;;;1.85;;
22603;SDS011;11469;49.024;8.246;2022-10-16T09:47:54;6.72;;;1.80;;
22603;SDS011;11469;49.024;8.246;2022-10-16T09:50:23;14.52;;;1.60;;
22603;SDS011;11469;49.024;8.246;2022-10-16T09:53:02;8.15;;;1.90;;
22603;SDS011;11469;49.024;8.246;2022-10-16T09:55:29;16.30;;;2.03;;
22603;SDS011;11469;49.024;8.246;2022-10-16T09:57:55;10.05;;;1.80;;
22603;SDS011;11469;49.024;8.246;2022-10-16T10:00:21;14.50;;;2.05;;
22603;SDS011;11469;49.024;8.246;2022-10-16T10:02:47;4.10;;;1.73;;
22603;SDS011;11469;49.024;8.246;2022-10-16T10:05:17;5.18;;;1.63;;
22603;SDS011;11469;49.024;8.246;2022-10-16T10:07:46;8.68;;;1.48;;
22603;SDS011;11469;49.024;8.246;2022-10-16T10:10:22;12.15;;;2.35;;
22603;SDS011;11469;49.024;8.246;2022-10-16T10:12:52;8.02;;;1.67;;
22603;SDS011;11469;49.024;8.246;2022-10-16T10:15:19;10.13;;;1.45;;
22603;SDS011;11469;49.024;8.246;2022-10-16T10:17:52;4.90;;;1.73;;
22603;SDS011;11469;49.024;8.246;2022-10-16T10:22:49;7.05;;;1.63;;
22603;SDS011;11469;49.024;8.246;2022-10-16T10:28:21;3.83;;;1.52;;
22603;SDS011;11469;49.024;8.246;2022-10-16T10:39:19;6.43;;;1.75;;
22603;SDS011;11469;49.024;8.246;2022-10-16T10:52:50;8.73;;;1.55;;
22603;SDS011;11469;49.024;8.246;2022-10-16T10:58:08;6.15;;;1.35;;
22603;SDS011;11469;49.024;8.246;2022-10-16T11:01:01;4.95;;;1.50;;
22603;SDS011;11469;49.024;8.246;2022-10-16T11:03:45;8.00;;;1.80;;
22603;SDS011;11469;49.024;8.246;2022-10-16T11:06:22;4.60;;;1.65;;
22603;SDS011;11469;49.024;8.246;2022-10-16T11:09:08;6.05;;;1.38;;
22603;SDS011;11469;49.024;8.246;2022-10-16T11:11:44;10.02;;;1.10;;
22603;SDS011;11469;49.024;8.246;2022-10-16T11:14:17;4.30;;;1.30;;
22603;SDS011;11469;49.024;8.246;2022-10-16T11:16:56;7.35;;;1.50;;
22603;SDS011;11469;49.024;8.246;2022-10-16T11:19:41;8.00;;;1.08;;
22603;SDS011;11469;49.024;8.246;2022-10-16T11:22:12;9.10;;;1.65;;
22603;SDS011;11469;49.024;8.246;2022-10-16T11:24:44;5.40;;;1.27;;
22603;SDS011;11469;49.024;8.246;2022-10-16T11:27:17;3.90;;;1.40;;
22603;SDS011;11469;49.024;8.246;2022-10-16T11:29:58;10.13;;;1.75;;
22603;SDS011;11469;49.024;8.246;2022-10-16T11:32:35;5.32;;;1.40;;
22603;SDS011;11469;49.024;8.246;2022-10-16T11:35:15;5.18;;;1.52;;
22603;SDS011;11469;49.024;8.246;2022-10-16T11:37:44;7.78;;;1.58;;
22603;SDS011;11469;49.024;8.246;2022-10-16T11:40:33;5.20;;;1.17;;
22603;SDS011;11469;49.024;8.246;2022-10-16T11:43:10;4.15;;;1.38;;
22603;SDS011;11469;49.024;8.246;2022-10-16T11:45:49;6.95;;;1.63;;
22603;SDS011;11469;49.024;8.246;2022-10-16T11:51:11;4.68;;;1.58;;
22603;SDS011;11469;49.024;8.246;2022-10-16T11:53:46;7.10;;;1.25;;
22603;SDS011;11469;49.024;8.246;2022-10-16T11:56:20;5.60;;;1.15;;
22603;SDS011;11469;49.024;8.246;2022-10-16T11:58:55;5.10;;;1.10;;
22603;SDS011;11469;49.024;8.246;2022-10-16T12:01:28;6.85;;;1.75;;
22603;SDS011;11469;49.024;8.246;2022-10-16T12:09:39;3.17;;;1.02;;
22603;SDS011;11469;49.024;8.246;2022-10-16T12:12:23;4.70;;;1.42;;
22603;SDS011;11469;49.024;8.246;2022-10-16T12:15:01;5.90;;;1.55;;
22603;SDS011;11469;49.024;8.246;2022-10-16T12:17:43;5.80;;;1.45;;
22603;SDS011;11469;49.024;8.246;2022-10-16T12:22:37;5.88;;;1.90;;
22603;SDS011;11469;49.024;8.246;2022-10-16T12:27:54;4.43;;;1.70;;
22603;SDS011;11469;49.024;8.246;2022-10-16T12:30:22;7.05;;;1.75;;
22603;SDS011;11469;49.024;8.246;2022-10-16T12:32:53;4.68;;;1.58;;
22603;SDS011;11469;49.024;8.246;2022-10-16T12:35:21;9.23;;;1.33;;
22603;SDS011;11469;49.024;8.246;2022-10-16T12:37:49;3.28;;;1.70;;
22603;SDS011;11469;49.024;8.246;2022-10-16T12:42:46;7.07;;;1.50;;
22603;SDS011;11469;49.024;8.246;2022-10-16T12:48:20;4.22;;;1.13;;
22603;SDS011;11469;49.024;8.246;2022-10-16T12:50:47;7.82;;;1.45;;
22603;SDS011;11469;49.024;8.246;2022-10-16T12:53:20;7.10;;;1.40;;
22603;SDS011;11469;49.024;8.246;2022-10-16T12:58:51;7.18;;;1.55;;
22603;SDS011;11469;49.024;8.246;2022-10-16T13:29:01;4.68;;;1.73;;
22603;SDS011;11469;49.024;8.246;2022-10-16T13:31:26;5.90;;;2.50;;
22603;SDS011;11469;49.024;8.246;2022-10-16T13:33:57;5.18;;;1.52;;
22603;SDS011;11469;49.024;8.246;2022-10-16T13:36:35;7.35;;;1.85;;
22603;SDS011;11469;49.024;8.246;2022-10-16T13:39:15;4.22;;;1.50;;
22603;SDS011;11469;49.024;8.246;2022-10-16T13:41:46;6.65;;;1.73;;
22603;SDS011;11469;49.024;8.246;2022-10-16T13:44:26;5.85;;;2.58;;
22603;SDS011;11469;49.024;8.246;2022-10-16T13:46:59;3.95;;;1.85;;
22603;SDS011;11469;49.024;8.246;2022-10-16T13:49:25;4.70;;;1.90;;
22603;SDS011;11469;49.024;8.246;2022-10-16T13:51:54;3.72;;;1.63;;
22603;SDS011;11469;49.024;8.246;2022-10-16T13:54:22;5.55;;;2.20;;
22603;SDS011;11469;49.024;8.246;2022-10-16T13:56:48;8.82;;;2.30;;
22603;SDS011;11469;49.024;8.246;2022-10-16T13:59:24;7.10;;;1.50;;
22603;SDS011;11469;49.024;8.246;2022-10-16T14:01:50;3.90;;;1.50;;
22603;SDS011;11469;49.024;8.246;2022-10-16T14:04:19;3.72;;;2.00;;
22603;SDS011;11469;49.024;8.246;2022-10-16T14:06:45;6.88;;;2.72;;
22603;SDS011;11469;49.024;8.246;2022-10-16T14:09:26;5.85;;;3.00;;
22603;SDS011;11469;49.024;8.246;2022-10-16T14:11:58;9.68;;;3.58;;
22603;SDS011;11469;49.024;8.246;2022-10-16T14:14:39;7.45;;;3.55;;
22603;SDS011;11469;49.024;8.246;2022-10-16T14:17:06;8.55;;;3.92;;
22603;SDS011;11469;49.024;8.246;2022-10-16T14:19:39;9.52;;;3.60;;
22603;SDS011;11469;49.024;8.246;2022-10-16T14:22:11;13.77;;;5.75;;
22603;SDS011;11469;49.024;8.246;2022-10-16T14:24:54;15.82;;;9.02;;
22603;SDS011;11469;49.024;8.246;2022-10-16T14:27:23;12.63;;;7.03;;
22603;SDS011;11469;49.024;8.246;2022-10-16T14:32:40;17.52;;;9.10;;
22603;SDS011;11469;49.024;8.246;2022-10-16T14:35:21;11.85;;;6.82;;
22603;SDS011;11469;49.024;8.246;2022-10-16T14:37:51;7.25;;;5.03;;
22603;SDS011;11469;49.024;8.246;2022-10-16T14:40:18;14.55;;;3.35;;
22603;SDS011;11469;49.024;8.246;2022-10-16T14:42:44;10.18;;;2.20;;
22603;SDS011;11469;49.024;8.246;2022-10-16T14:45:10;3.92;;;1.90;;
22603;SDS011;11469;49.024;8.246;2022-10-16T14:47:36;3.38;;;1.85;;
22603;SDS011;11469;49.024;8.246;2022-10-16T14:50:13;8.48;;;2.40;;
22603;SDS011;11469;49.024;8.246;2022-10-16T14:52:38;5.38;;;2.00;;
22603;SDS011;11469;49.024;8.246;2022-10-16T14:55:04;6.35;;;1.70;;
22603;SDS011;11469;49.024;8.246;2022-10-16T14:57:30;9.82;;;1.70;;
22603;SDS011;11469;49.024;8.246;2022-10-16T15:00:00;8.52;;;1.70;;
22603;SDS011;11469;49.024;8.246;2022-10-16T15:02:33;3.33;;;1.80;;
22603;SDS011;11469;49.024;8.246;2022-10-16T15:05:13;8.00;;;1.88;;
22603;SDS011;11469;49.024;8.246;2022-10-16T15:07:40;2.35;;;1.45;;
22603;SDS011;11469;49.024;8.246;2022-10-16T15:10:06;7.97;;;1.50;;
22603;SDS011;11469;49.024;8.246;2022-10-16T15:12:32;12.80;;;2.40;;
22603;SDS011;11469;49.024;8.246;2022-10-16T15:14:58;4.05;;;2.00;;
22603;SDS011;11469;49.024;8.246;2022-10-16T15:17:23;3.33;;;2.00;;
22603;SDS011;11469;49.024;8.246;2022-10-16T15:19:48;6.72;;;3.20;;
22603;SDS011;11469;49.024;8.246;2022-10-16T15:22:14;7.95;;;2.22;;
22603;SDS011;11469;49.024;8.246;2022-10-16T15:24:39;9.73;;;1.30;;
22603;SDS011;11469;49.024;8.246;2022-10-16T15:27:05;5.90;;;1.65;;
22603;SDS011;11469;49.024;8.246;2022-10-16T15:29:30;10.32;;;2.45;;
22603;SDS011;11469;49.024;8.246;2022-10-16T15:31:56;13.02;;;2.90;;
22603;SDS011;11469;49.024;8.246;2022-10-16T15:34:21;9.10;;;2.95;;
22603;SDS011;11469;49.024;8.246;2022-10-16T15:36:46;8.77;;;2.63;;
22603;SDS011;11469;49.024;8.246;2022-10-16T15:39:13;6.85;;;4.28;;
22603;SDS011;11469;49.024;8.246;2022-10-16T15:41:40;11.15;;;3.35;;
22603;SDS011;11469;49.024;8.246;2022-10-16T15:44:06;6.45;;;2.22;;
22603;SDS011;11469;49.024;8.246;2022-10-16T15:46:31;6.90;;;2.10;;
22603;SDS011;11469;49.024;8.246;2022-10-16T15:48:58;9.15;;;1.95;;
22603;SDS011;11469;49.024;8.246;2022-10-16T15:51:25;6.47;;;2.20;;
22603;SDS011;11469;49.024;8.246;2022-10-16T15:53:57;3.28;;;2.10;;
22603;SDS011;11469;49.024;8.246;2022-10-16T15:56:23;4.05;;;2.08;;
22603;SDS011;11469;49.024;8.246;2022-10-16T15:58:51;6.50;;;2.05;;
22603;SDS011;11469;49.024;8.246;2022-10-16T16:01:16;3.33;;;1.92;;
22603;SDS011;11469;49.024;8.246;2022-10-16T16:03:42;8.75;;;2.20;;
22603;SDS011;11469;49.024;8.246;2022-10-16T16:06:10;15.75;;;2.80;;
22603;SDS011;11469;49.024;8.246;2022-10-16T16:08:37;4.72;;;1.90;;
22603;SDS011;11469;49.024;8.246;2022-10-16T16:11:04;10.40;;;1.88;;
22603;SDS011;11469;49.024;8.246;2022-10-16T16:13:32;11.95;;;2.95;;
22603;SDS011;11469;49.024;8.246;2022-10-16T16:15:57;15.13;;;3.55;;
22603;SDS011;11469;49.024;8.246;2022-10-16T16:18:23;4.85;;;3.20;;
22603;SDS011;11469;49.024;8.246;2022-10-16T16:20:49;7.88;;;2.50;;
22603;SDS011;11469;49.024;8.246;2022-10-16T16:23:15;5.22;;;2.13;;
22603;SDS011;11469;49.024;8.246;2022-10-16T16:25:41;16.00;;;4.43;;
22603;SDS011;11469;49.024;8.246;2022-10-16T16:28:06;22.35;;;10.30;;
22603;SDS011;11469;49.024;8.246;2022-10-16T16:30:32;13.25;;;6.45;;
22603;SDS011;11469;49.024;8.246;2022-10-16T16:32:58;20.95;;;9.23;;
22603;SDS011;11469;49.024;8.246;2022-10-16T16:35:23;20.50;;;3.03;;
22603;SDS011;11469;49.024;8.246;2022-10-16T16:37:48;13.30;;;3.50;;
22603;SDS011;11469;49.024;8.246;2022-10-16T16:40:14;14.38;;;3.60;;
22603;SDS011;11469;49.024;8.246;2022-10-16T16:42:39;18.13;;;3.22;;
22603;SDS011;11469;49.024;8.246;2022-10-16T16:45:05;12.55;;;3.55;;